createdAt,value
2023-01-15T00:03:05.322Z,13.80
2023-01-15T00:08:07.083Z,15.07
2023-01-15T00:13:08.857Z,10.55
2023-01-15T00:18:10.731Z,7.68
2023-01-15T00:23:32.327Z,13.27
2023-01-15T00:28:33.952Z,11.43
2023-01-15T00:33:35.584Z,11.25
2023-01-15T00:38:37.239Z,11.10
2023-01-15T00:43:39.108Z,9.60
2023-01-15T00:48:41.202Z,13.52
2023-01-15T00:53:42.889Z,11.20
2023-01-15T00:58:46.341Z,10.02
2023-01-15T01:03:50.172Z,12.93
2023-01-15T01:08:51.799Z,8.32
2023-01-15T01:13:56.649Z,9.85
2023-01-15T01:18:59.807Z,10.73
2023-01-15T01:24:02.247Z,8.85
2023-01-15T01:29:04.469Z,5.25
2023-01-15T01:34:09.890Z,8.70
2023-01-15T01:39:17.329Z,10.80
2023-01-15T01:44:34.783Z,8.65
2023-01-15T01:49:39.545Z,8.80
2023-01-15T01:54:42.630Z,13.63
2023-01-15T01:59:45.222Z,8.13
2023-01-15T02:04:47.228Z,13.82
2023-01-15T02:09:48.843Z,10.40
2023-01-15T02:15:10.317Z,10.43
2023-01-15T02:20:44.250Z,8.43
2023-01-15T02:26:26.789Z,10.98
2023-01-15T02:31:37.583Z,8.98
2023-01-15T02:36:47.158Z,15.25
2023-01-15T02:42:02.574Z,13.55
2023-01-15T02:47:11.262Z,8.95
2023-01-15T02:52:23.175Z,7.55
2023-01-15T02:57:28.543Z,11.43
2023-01-15T03:02:51.195Z,9.45
2023-01-15T03:07:59.740Z,10.32
2023-01-15T03:13:07.278Z,16.70
2023-01-15T03:18:22.025Z,9.70
2023-01-15T03:23:27.387Z,9.48
2023-01-15T03:28:33.752Z,15.88
2023-01-15T03:33:36.291Z,12.95
2023-01-15T03:38:40.883Z,12.05
2023-01-15T03:44:13.917Z,8.47
2023-01-15T03:49:38.391Z,9.18
2023-01-15T03:55:02.903Z,10.75
2023-01-15T04:00:28.048Z,8.35
2023-01-15T04:05:35.311Z,14.85
2023-01-15T04:10:38.421Z,12.27
2023-01-15T04:15:44.656Z,10.60
2023-01-15T04:20:48.573Z,9.25
2023-01-15T04:25:50.561Z,8.50
2023-01-15T04:30:52.284Z,6.05
2023-01-15T04:35:53.914Z,6.38
2023-01-15T04:41:14.281Z,9.23
2023-01-15T04:51:17.832Z,12.23
2023-01-15T04:56:19.712Z,8.55
2023-01-15T05:01:21.424Z,7.90
2023-01-15T05:06:23.146Z,5.25
2023-01-15T05:11:25.253Z,6.80
2023-01-15T05:16:28.661Z,7.47
2023-01-15T05:21:35.883Z,5.88
2023-01-15T05:26:37.473Z,8.15
2023-01-15T05:31:39.997Z,7.65
2023-01-15T05:36:41.987Z,9.07
2023-01-15T05:41:49.646Z,6.13
2023-01-15T05:46:53.754Z,8.02
2023-01-15T05:51:55.997Z,8.02
2023-01-15T05:56:57.724Z,8.00
2023-01-15T06:02:00.082Z,8.82
2023-01-15T06:07:01.787Z,7.13
2023-01-15T06:12:03.661Z,9.45
2023-01-15T06:17:05.279Z,6.75
2023-01-15T06:22:06.876Z,12.75
2023-01-15T06:27:08.705Z,8.35
2023-01-15T06:32:10.406Z,8.73
2023-01-15T06:37:12.072Z,8.73
2023-01-15T06:42:32.035Z,8.77
2023-01-15T06:47:33.952Z,7.25
2023-01-15T06:52:35.616Z,14.30
2023-01-15T06:57:41.033Z,11.07
2023-01-15T07:02:42.708Z,10.95
2023-01-15T07:07:44.427Z,7.05
2023-01-15T07:12:46.097Z,10.05
2023-01-15T07:17:47.723Z,11.35
2023-01-15T07:22:50.524Z,11.38
2023-01-15T07:27:52.216Z,5.97
2023-01-15T07:32:56.979Z,8.90
2023-01-15T07:37:58.655Z,8.88
2023-01-15T07:43:18.967Z,14.43
2023-01-15T07:48:39.385Z,10.98
2023-01-15T07:58:42.598Z,11.65
2023-01-15T08:03:44.287Z,12.68
2023-01-15T08:08:46.005Z,13.00
2023-01-15T08:14:06.374Z,13.85
2023-01-15T08:24:10.280Z,14.18
2023-01-15T08:29:11.947Z,11.05
2023-01-15T08:34:15.726Z,15.15
2023-01-15T08:39:17.304Z,17.30
2023-01-15T08:44:19.109Z,15.77
2023-01-15T08:49:21.828Z,11.27
2023-01-15T08:54:26.665Z,19.48
2023-01-15T08:59:28.437Z,15.55
2023-01-15T09:04:30.734Z,15.68
2023-01-15T09:09:33.972Z,14.82
2023-01-15T09:14:59.767Z,13.52
2023-01-15T09:19:58.387Z,16.65
2023-01-15T09:25:00.061Z,13.13
2023-01-15T09:30:01.769Z,8.77
2023-01-15T09:35:03.828Z,13.30
2023-01-15T09:40:09.169Z,12.18
2023-01-15T09:45:37.378Z,8.95
2023-01-15T09:50:57.870Z,13.65
2023-01-15T10:01:04.470Z,11.23
2023-01-15T10:06:15.545Z,11.75
2023-01-15T10:11:20.222Z,10.10
2023-01-15T10:16:25.793Z,13.25
2023-01-15T10:22:07.222Z,17.52
2023-01-15T10:27:23.049Z,11.50
2023-01-15T10:33:07.613Z,11.52
2023-01-15T10:38:17.973Z,10.15
2023-01-15T10:43:25.767Z,12.23
2023-01-15T10:48:48.846Z,14.35
2023-01-15T10:53:56.400Z,13.40
2023-01-15T10:59:08.648Z,13.35
2023-01-15T11:04:14.849Z,13.60
2023-01-15T11:09:22.681Z,9.95
2023-01-15T11:14:53.433Z,16.00
2023-01-15T11:19:55.141Z,16.55
2023-01-15T11:25:01.311Z,18.48
2023-01-15T11:30:06.686Z,19.48
2023-01-15T11:35:08.439Z,20.02
2023-01-15T11:40:23.483Z,13.85
2023-01-15T11:45:46.781Z,18.20
2023-01-15T11:51:09.540Z,18.58
2023-01-15T11:56:16.362Z,13.85
2023-01-15T12:01:37.411Z,15.70
2023-01-15T12:06:41.010Z,17.45
2023-01-15T12:12:08.173Z,13.98
2023-01-15T12:17:24.824Z,14.25
2023-01-15T12:22:54.974Z,13.88
2023-01-15T12:28:07.866Z,12.47
2023-01-15T12:33:18.598Z,15.63
2023-01-15T12:38:46.524Z,10.77
2023-01-15T12:44:15.817Z,12.52
2023-01-15T12:49:31.749Z,9.68
2023-01-15T12:54:49.526Z,13.60
2023-01-15T12:59:57.760Z,10.63
2023-01-15T13:05:41.760Z,8.32
2023-01-15T13:10:44.546Z,12.23
2023-01-15T13:16:13.188Z,12.48
2023-01-15T13:21:17.334Z,12.77
2023-01-15T13:26:46.998Z,13.68
2023-01-15T13:32:01.003Z,16.77
2023-01-15T13:37:27.923Z,13.18
2023-01-15T13:42:32.008Z,7.65
2023-01-15T13:47:37.552Z,10.63
2023-01-15T13:52:39.469Z,6.30
2023-01-15T13:57:42.805Z,7.93
2023-01-15T14:02:55.917Z,6.20
2023-01-15T14:07:58.322Z,6.35
2023-01-15T14:13:43.107Z,7.80
2023-01-15T14:19:15.491Z,8.98
2023-01-15T14:24:38.484Z,6.63
2023-01-15T14:30:00.688Z,11.40
2023-01-15T14:35:03.327Z,7.45
2023-01-15T14:40:06.511Z,10.15
2023-01-15T14:45:21.181Z,10.38
2023-01-15T14:50:38.832Z,6.97
2023-01-15T14:55:46.710Z,9.65
2023-01-15T15:00:55.720Z,9.13
2023-01-15T15:05:57.918Z,8.48
2023-01-15T15:11:02.737Z,8.73
2023-01-15T15:16:22.391Z,6.97
2023-01-15T15:21:28.227Z,8.80
2023-01-15T15:26:32.908Z,10.82
2023-01-15T15:31:37.904Z,8.27
2023-01-15T15:36:39.894Z,11.95
2023-01-15T15:42:03.584Z,13.75
2023-01-15T15:47:38.406Z,14.48
2023-01-15T15:52:44.646Z,16.75
2023-01-15T15:57:55.748Z,9.35
2023-01-15T16:03:07.505Z,9.80
2023-01-15T16:08:31.741Z,10.02
2023-01-15T16:13:42.751Z,11.60
2023-01-15T16:18:51.466Z,14.02
2023-01-15T16:24:03.487Z,11.70
2023-01-15T16:29:18.232Z,10.20
2023-01-15T16:34:46.402Z,10.50
2023-01-15T16:39:48.215Z,10.82
2023-01-15T16:44:54.191Z,12.00
2023-01-15T16:50:25.144Z,11.63
2023-01-15T16:55:39.419Z,17.63
2023-01-15T17:00:46.083Z,10.55
2023-01-15T17:05:56.241Z,13.27
2023-01-15T17:11:00.685Z,7.32
2023-01-15T17:16:22.421Z,11.52
2023-01-15T17:21:28.723Z,9.60
2023-01-15T17:26:30.759Z,7.85
2023-01-15T17:31:34.634Z,7.43
2023-01-15T17:36:36.481Z,11.20
2023-01-15T17:41:38.132Z,5.53
2023-01-15T17:46:42.848Z,5.88
2023-01-15T17:51:46.788Z,5.40
2023-01-15T17:57:07.590Z,2.97
2023-01-15T18:02:34.311Z,6.03
2023-01-15T18:07:40.975Z,7.45
2023-01-15T18:12:46.042Z,14.75
2023-01-15T18:17:50.969Z,11.48
2023-01-15T18:22:54.358Z,10.70
2023-01-15T18:27:56.088Z,7.18
2023-01-15T18:33:02.993Z,15.75
2023-01-15T18:38:04.838Z,15.52
2023-01-15T18:43:25.455Z,12.93
2023-01-15T18:48:27.706Z,11.88
2023-01-15T18:53:29.598Z,7.53
2023-01-15T18:58:31.715Z,8.05
2023-01-15T19:03:33.783Z,13.93
2023-01-15T19:08:35.473Z,9.35
2023-01-15T19:13:37.111Z,10.40
2023-01-15T19:18:41.717Z,7.50
2023-01-15T19:23:43.438Z,8.65
2023-01-15T19:28:48.744Z,8.48
2023-01-15T19:33:50.502Z,7.72
2023-01-15T19:38:52.281Z,6.88
2023-01-15T19:44:17.736Z,6.38
2023-01-15T19:49:41.093Z,8.38
2023-01-15T19:54:57.350Z,6.78
2023-01-15T19:59:59.073Z,4.70
2023-01-15T20:05:00.982Z,6.40
2023-01-15T20:10:08.813Z,5.40
2023-01-15T20:15:10.743Z,4.15
2023-01-15T20:20:12.697Z,3.67
2023-01-15T20:25:16.975Z,4.03
2023-01-15T20:30:27.435Z,2.80
2023-01-15T20:35:31.854Z,3.20
2023-01-15T20:40:33.602Z,3.63
2023-01-15T20:45:38.147Z,1.70
2023-01-15T20:51:01.230Z,4.15
2023-01-15T20:56:04.210Z,3.25
2023-01-15T21:01:09.016Z,2.45
2023-01-15T21:06:10.761Z,3.08
2023-01-15T21:11:12.457Z,3.60
2023-01-15T21:16:15.088Z,2.53
2023-01-15T21:21:18.382Z,2.03
2023-01-15T21:26:20.042Z,2.22
2023-01-15T21:31:22.056Z,2.72
2023-01-15T21:36:24.444Z,1.55
2023-01-15T21:41:45.192Z,2.55
2023-01-15T21:46:47.040Z,2.63
2023-01-15T21:51:48.671Z,1.55
2023-01-15T21:56:50.345Z,2.42
2023-01-15T22:01:56.697Z,1.02
2023-01-15T22:06:58.451Z,2.15
2023-01-15T22:12:00.128Z,2.80
2023-01-15T22:17:03.783Z,3.67
2023-01-15T22:22:10.747Z,3.83
2023-01-15T22:27:16.375Z,3.08
2023-01-15T22:32:18.085Z,2.58
2023-01-15T22:37:20.167Z,2.08
2023-01-15T22:42:24.692Z,2.60
2023-01-15T22:47:28.559Z,3.20
2023-01-15T22:52:33.083Z,2.33
2023-01-15T22:57:34.827Z,3.83
2023-01-15T23:02:54.746Z,2.78
2023-01-15T23:07:56.365Z,3.92
2023-01-15T23:12:57.964Z,3.63
2023-01-15T23:17:59.762Z,3.17
2023-01-15T23:23:01.497Z,2.80
2023-01-15T23:28:03.184Z,4.43
2023-01-15T23:33:04.864Z,2.45
2023-01-15T23:38:06.639Z,3.20
2023-01-15T23:43:31.973Z,2.55
2023-01-15T23:48:33.796Z,2.25
2023-01-15T23:53:35.446Z,2.58
2023-01-15T23:58:37.077Z,3.47
